Time;durP1;ratioP1;P1;durP2;ratioP2;P2;SDS_P1;SDS_P2;PMS_P1;PMS_P2;Temp;Humidity;BMP_temperature;BMP_pressure;BME280_temperature;BME280_humidity;BME280_pressure;Samples;Min_cycle;Max_cycle;Signal;HPM_P1;HPM_P2
2024/02/15 00:00:03;;;;;;;22.00;11.02;;;;;;;14.48;90.84;101264.69;4989655;28;20124;-59
2024/02/15 00:02:31;;;;;;;24.00;11.27;;;;;;;14.42;91.04;101266.00;5009168;28;20048;-57
2024/02/15 00:04:59;;;;;;;21.00;11.18;;;;;;;14.54;91.02;101271.69;5025774;28;20056;-58
2024/02/15 00:07:26;;;;;;;23.08;12.55;;;;;;;14.43;91.24;101265.69;5003392;28;20051;-59
2024/02/15 00:09:54;;;;;;;27.02;13.15;;;;;;;14.35;91.05;101260.13;4993283;28;20053;-59
2024/02/15 00:12:21;;;;;;;26.42;13.55;;;;;;;14.33;91.75;101266.00;4989064;28;20057;-58
2024/02/15 00:14:49;;;;;;;31.98;16.42;;;;;;;14.26;91.78;101262.09;5022583;28;20834;-63
2024/02/15 00:17:18;;;;;;;36.45;20.10;;;;;;;14.15;92.11;101255.19;5006704;28;20057;-60
2024/02/15 00:19:46;;;;;;;43.63;25.83;;;;;;;14.06;92.44;101255.19;5007858;28;20053;-59
2024/02/15 00:22:13;;;;;;;44.72;28.55;;;;;;;14.15;92.65;101246.88;5007884;28;20064;-57
2024/02/15 00:24:42;;;;;;;53.38;30.42;;;;;;;14.08;93.22;101252.09;4989325;28;20050;-59
2024/02/15 00:27:10;;;;;;;55.40;33.58;;;;;;;14.02;92.98;101251.41;5008124;28;20149;-58
2024/02/15 00:29:40;;;;;;;54.83;35.15;;;;;;;14.04;92.51;101246.38;5022223;28;20054;-59
2024/02/15 00:32:07;;;;;;;62.33;35.47;;;;;;;14.24;92.38;101242.97;5007018;28;20540;-58
2024/02/15 00:34:38;;;;;;;52.53;31.52;;;;;;;14.20;91.49;101239.22;5006875;28;20050;-59
2024/02/15 00:37:06;;;;;;;52.03;29.67;;;;;;;14.22;91.45;101233.38;5007660;28;20050;-59
2024/02/15 00:39:33;;;;;;;46.47;26.75;;;;;;;14.18;91.23;101235.16;5003021;28;20061;-59
2024/02/15 00:42:01;;;;;;;43.80;23.83;;;;;;;14.16;91.60;101234.66;4993448;28;20058;-60
2024/02/15 00:44:29;;;;;;;35.92;18.67;;;;;;;14.20;91.98;101227.31;5010276;28;20058;-60
2024/02/15 00:46:56;;;;;;;29.02;16.00;;;;;;;14.21;91.58;101217.91;5010731;28;20087;-61
2024/02/15 00:49:27;;;;;;;25.02;12.27;;;;;;;13.97;91.75;101229.41;4999767;28;20050;-61
2024/02/15 00:51:55;;;;;;;21.55;10.40;;;;;;;14.03;92.33;101225.38;4991532;28;20054;-61
2024/02/15 00:54:22;;;;;;;15.63;7.53;;;;;;;13.95;93.11;101223.38;5003017;28;20627;-60
2024/02/15 00:56:51;;;;;;;17.85;6.82;;;;;;;13.77;92.99;101216.19;5011080;28;20528;-59
2024/02/15 00:59:19;;;;;;;14.48;6.40;;;;;;;13.80;93.34;101212.78;4989472;28;20070;-60
2024/02/15 01:01:47;;;;;;;12.43;5.05;;;;;;;13.89;93.21;101210.84;5006512;28;20061;-62
2024/02/15 01:04:15;;;;;;;12.93;5.13;;;;;;;13.84;92.79;101208.25;5025731;28;20183;-60
2024/02/15 01:06:42;;;;;;;9.82;4.40;;;;;;;13.90;92.53;101212.47;4992238;28;20057;-58
2024/02/15 01:09:09;;;;;;;13.55;5.10;;;;;;;13.85;92.24;101204.31;5010969;28;20055;-59
2024/02/15 01:11:37;;;;;;;13.65;4.65;;;;;;;13.78;92.66;101206.75;4993262;28;20061;-60
2024/02/15 01:14:06;;;;;;;11.68;5.15;;;;;;;13.84;92.23;101207.41;4989049;28;20501;-60
2024/02/15 01:16:35;;;;;;;13.30;5.70;;;;;;;13.84;91.72;101205.47;4991202;28;20058;-59
2024/02/15 01:19:03;;;;;;;14.80;6.90;;;;;;;13.91;91.36;101200.28;5006273;28;20813;-59
2024/02/15 01:21:33;;;;;;;15.15;5.88;;;;;;;13.97;90.61;101198.13;5010619;28;20054;-60
2024/02/15 01:24:03;;;;;;;9.75;5.20;;;;;;;13.73;91.75;101204.13;5005827;28;20096;-59
2024/02/15 01:26:30;;;;;;;12.80;5.35;;;;;;;13.84;91.71;101199.09;5004195;28;20088;-60
2024/02/15 01:28:57;;;;;;;13.18;5.68;;;;;;;13.89;90.36;101202.53;5024574;28;20058;-60
2024/02/15 01:31:25;;;;;;;12.50;4.90;;;;;;;13.95;90.12;101200.41;5010040;28;20050;-59
2024/02/15 01:33:52;;;;;;;12.52;4.82;;;;;;;14.04;89.88;101204.00;5009066;28;20061;-59
2024/02/15 01:36:20;;;;;;;13.23;4.95;;;;;;;13.88;90.14;101197.34;5013607;28;20053;-59
2024/02/15 01:38:47;;;;;;;10.93;4.57;;;;;;;13.97;90.26;101198.13;5029411;28;20773;-60
2024/02/15 01:41:14;;;;;;;11.75;4.97;;;;;;;14.09;88.58;101201.91;5029608;28;20041;-61
2024/02/15 01:43:45;;;;;;;12.40;4.60;;;;;;;14.13;88.24;101196.53;5029593;28;20064;-59
2024/02/15 01:46:14;;;;;;;12.55;4.90;;;;;;;14.04;88.59;101192.94;5006915;28;20066;-60
2024/02/15 01:48:42;;;;;;;14.27;4.72;;;;;;;14.04;88.33;101192.94;4991241;28;20049;-61
2024/02/15 01:51:11;;;;;;;11.57;4.85;;;;;;;14.02;87.72;101204.34;4993348;28;20050;-58
2024/02/15 01:53:40;;;;;;;11.82;5.13;;;;;;;13.92;88.09;101195.53;4972728;28;20058;-60
2024/02/15 01:56:07;;;;;;;13.57;5.57;;;;;;;13.93;88.18;101189.66;4972789;28;20050;-58
2024/02/15 01:58:36;;;;;;;16.67;6.63;;;;;;;14.02;87.42;101189.66;5004464;28;20699;-60
2024/02/15 02:01:04;;;;;;;11.38;5.50;;;;;;;13.96;87.95;101196.50;5020747;28;20073;-59
2024/02/15 02:03:31;;;;;;;12.98;5.55;;;;;;;13.96;87.42;101183.50;4992560;28;20143;-58
2024/02/15 02:06:00;;;;;;;13.77;5.57;;;;;;;13.86;88.39;101191.28;5024664;28;20160;-58
2024/02/15 02:08:27;;;;;;;12.35;5.05;;;;;;;13.82;88.15;101182.00;5009856;28;20061;-58
2024/02/15 02:10:55;;;;;;;11.88;4.78;;;;;;;13.85;88.08;101182.16;4996440;28;20058;-58
2024/02/15 02:13:23;;;;;;;9.05;4.22;;;;;;;13.80;87.77;101187.03;4990751;28;20064;-59
2024/02/15 02:15:51;;;;;;;8.75;4.32;;;;;;;14.08;86.79;101182.84;4989804;28;20064;-61
2024/02/15 02:18:18;;;;;;;12.77;4.38;;;;;;;14.10;86.24;101169.47;4997983;28;20061;-60
2024/02/15 02:20:46;;;;;;;10.98;4.00;;;;;;;14.08;85.79;101172.56;5008747;28;20053;-59
2024/02/15 02:23:19;;;;;;;16.38;4.50;;;;;;;13.98;85.81;101169.31;5004649;28;20066;-59
2024/02/15 02:25:49;;;;;;;12.02;4.22;;;;;;;13.95;86.04;101164.41;5009199;28;20081;-59
2024/02/15 02:28:16;;;;;;;15.55;5.20;;;;;;;13.91;86.89;101168.97;5008948;28;20053;-60
2024/02/15 02:30:45;;;;;;;12.38;5.38;;;;;;;13.80;86.48;101162.94;5002689;28;20058;-59
2024/02/15 02:33:24;;;;;;;12.30;5.85;;;;;;;13.95;86.84;101156.91;4989286;28;20323;-58
2024/02/15 02:35:52;;;;;;;12.73;6.45;;;;;;;14.05;85.87;101151.03;5005292;28;20549;-58
2024/02/15 02:38:19;;;;;;;13.02;6.68;;;;;;;13.94;86.09;101154.47;4990253;28;20062;-61
2024/02/15 02:40:46;;;;;;;13.15;7.40;;;;;;;13.89;85.76;101149.09;4989514;28;20049;-59
2024/02/15 02:43:14;;;;;;;14.95;7.57;;;;;;;14.02;85.08;101137.84;4989172;28;20058;-59
2024/02/15 02:45:42;;;;;;;15.75;8.43;;;;;;;13.73;86.83;101136.88;4991982;28;20065;-60
2024/02/15 02:48:10;;;;;;;17.95;8.82;;;;;;;13.81;86.65;101122.22;4975728;28;20050;-60
2024/02/15 02:50:37;;;;;;;17.70;10.00;;;;;;;13.71;86.41;101133.59;5007661;28;20053;-62
2024/02/15 02:53:05;;;;;;;21.50;11.98;;;;;;;13.78;86.53;101122.84;5024188;28;20064;-59
2024/02/15 02:55:32;;;;;;;22.77;12.85;;;;;;;13.67;86.41;101125.13;5008855;28;20068;-60
2024/02/15 02:58:00;;;;;;;22.45;12.13;;;;;;;13.86;86.14;101113.75;4995165;28;20062;-59
2024/02/15 03:00:27;;;;;;;19.35;11.60;;;;;;;13.91;85.39;101119.13;5005814;28;20058;-59
2024/02/15 03:02:56;;;;;;;21.45;11.80;;;;;;;13.63;85.79;101120.56;5007656;28;20104;-59
2024/02/15 03:05:24;;;;;;;19.50;11.23;;;;;;;13.66;86.57;101123.50;5009069;28;20509;-60
2024/02/15 03:07:51;;;;;;;22.23;10.90;;;;;;;13.82;86.17;101115.53;5014408;28;20597;-62
2024/02/15 03:10:19;;;;;;;17.52;9.85;;;;;;;13.84;85.77;101110.50;4989563;28;20069;-60
2024/02/15 03:12:49;;;;;;;17.65;8.95;;;;;;;13.85;85.49;101106.56;5008644;28;20427;-59
2024/02/15 03:15:17;;;;;;;13.50;7.60;;;;;;;13.77;85.31;101111.00;5008494;28;20049;-59
2024/02/15 03:17:47;;;;;;;12.68;6.80;;;;;;;13.65;86.12;101112.78;5008303;28;20512;-59
2024/02/15 03:20:21;;;;;;;12.60;6.70;;;;;;;13.81;85.80;101106.41;5007373;28;20064;-61
2024/02/15 03:22:53;;;;;;;14.05;5.68;;;;;;;14.03;84.88;101103.50;5009059;28;20605;-60
2024/02/15 03:25:23;;;;;;;11.90;5.63;;;;;;;13.75;84.79;101098.59;5002169;28;20057;-59
2024/02/15 03:27:52;;;;;;;15.80;6.05;;;;;;;13.73;85.71;101092.56;4989050;28;20084;-61
2024/02/15 03:30:21;;;;;;;12.80;5.43;;;;;;;13.31;87.11;101097.75;4988410;28;20200;-58
2024/02/15 03:32:48;;;;;;;9.55;4.75;;;;;;;13.43;87.67;101094.34;5006632;28;20046;-60
2024/02/15 03:35:15;;;;;;;11.65;5.90;;;;;;;13.42;87.26;101098.25;4989801;28;20058;-59
2024/02/15 03:37:43;;;;;;;12.63;4.75;;;;;;;13.24;88.31;101097.41;5008643;28;20658;-59
2024/02/15 03:40:10;;;;;;;11.18;4.68;;;;;;;13.26;87.78;101091.53;5007129;28;20061;-59
2024/02/15 03:42:37;;;;;;;8.75;4.13;;;;;;;13.27;88.36;101090.38;5003379;28;20065;-60
2024/02/15 03:45:08;;;;;;;9.82;4.10;;;;;;;13.35;87.77;101084.06;5006725;28;20061;-57
2024/02/15 03:47:36;;;;;;;10.95;4.45;;;;;;;13.37;87.78;101082.59;5021414;28;20545;-59
2024/02/15 03:50:05;;;;;;;10.73;4.00;;;;;;;13.37;87.34;101082.59;5021858;28;20164;-59
2024/02/15 03:52:32;;;;;;;8.98;3.92;;;;;;;13.47;87.15;101068.47;5007702;28;20045;-60
2024/02/15 03:54:59;;;;;;;9.82;4.05;;;;;;;13.32;86.96;101065.34;5002164;28;20054;-58
2024/02/15 03:57:27;;;;;;;10.68;3.60;;;;;;;13.14;88.21;101063.69;4988651;28;20058;-60
2024/02/15 03:59:58;;;;;;;10.07;3.50;;;;;;;13.03;89.02;101060.41;4988123;28;20062;-59
2024/02/15 04:02:30;;;;;;;8.13;3.25;;;;;;;13.14;88.80;101066.44;4987881;28;20581;-60
2024/02/15 04:04:57;;;;;;;8.70;3.33;;;;;;;13.21;88.28;101064.03;4988189;28;20398;-58
2024/02/15 04:07:27;;;;;;;9.00;3.08;;;;;;;13.19;87.92;101060.78;4993519;28;20064;-60
2024/02/15 04:09:55;;;;;;;16.70;3.40;;;;;;;13.20;88.29;101068.75;5007323;28;20417;-59
2024/02/15 04:12:22;;;;;;;9.68;3.15;;;;;;;13.24;87.71;101064.19;5007713;28;20473;-60
2024/02/15 04:14:50;;;;;;;7.53;2.85;;;;;;;13.20;87.43;101071.50;5007200;28;20062;-59
2024/02/15 04:17:21;;;;;;;8.00;2.80;;;;;;;13.13;87.80;101065.63;5007342;28;20581;-58
2024/02/15 04:19:53;;;;;;;9.85;2.90;;;;;;;13.09;87.59;101063.84;5005921;28;20068;-57
2024/02/15 04:22:20;;;;;;;9.07;3.25;;;;;;;13.30;87.13;101060.13;5007188;28;20054;-60
2024/02/15 04:24:47;;;;;;;9.35;2.70;;;;;;;13.29;86.74;101064.03;5007049;28;20062;-59
2024/02/15 04:27:15;;;;;;;8.13;2.83;;;;;;;13.18;87.06;101068.25;5007390;28;20062;-59
2024/02/15 04:29:44;;;;;;;9.40;3.08;;;;;;;13.39;86.79;101049.06;5007139;28;20058;-61
2024/02/15 04:32:13;;;;;;;9.73;2.72;;;;;;;13.21;87.00;101047.44;4975099;28;20046;-60
2024/02/15 04:34:40;;;;;;;8.38;3.28;;;;;;;13.10;87.08;101052.47;5002219;28;20050;-60
2024/02/15 04:37:08;;;;;;;8.93;3.00;;;;;;;13.07;87.87;101052.28;4987655;28;20050;-58
2024/02/15 04:39:38;;;;;;;10.80;2.97;;;;;;;12.86;88.59;101051.22;5002288;28;20057;-61
2024/02/15 04:42:07;;;;;;;8.13;2.97;;;;;;;12.90;88.77;101058.53;5007563;28;20058;-57
2024/02/15 04:44:35;;;;;;;11.40;3.42;;;;;;;13.02;88.99;101052.44;5007404;28;20054;-58
2024/02/15 04:47:03;;;;;;;6.30;2.63;;;;;;;13.03;88.00;101046.59;5008658;28;20049;-60
2024/02/15 04:49:37;;;;;;;6.60;2.83;;;;;;;13.00;88.00;101046.38;5009118;28;20065;-58
2024/02/15 04:52:06;;;;;;;10.07;2.90;;;;;;;13.06;87.86;101042.34;5008307;28;20057;-61
2024/02/15 04:54:33;;;;;;;7.97;2.78;;;;;;;13.07;88.20;101036.50;4984648;28;20053;-60
2024/02/15 04:57:01;;;;;;;8.45;2.80;;;;;;;13.07;87.45;101039.28;5007487;28;20089;-63
2024/02/15 04:59:29;;;;;;;6.72;3.17;;;;;;;13.06;87.91;101034.03;5007359;28;20068;-60
2024/02/15 05:01:58;;;;;;;7.00;2.90;;;;;;;12.94;88.22;101033.81;5006601;28;20079;-62
2024/02/15 05:04:25;;;;;;;8.93;3.30;;;;;;;12.92;88.95;101031.38;5005358;28;20046;-61
2024/02/15 05:06:53;;;;;;;6.63;2.90;;;;;;;12.80;88.94;101028.44;5005499;28;20065;-62
2024/02/15 05:09:22;;;;;;;9.63;2.72;;;;;;;12.91;88.79;101026.19;5020872;28;20068;-59
2024/02/15 05:11:50;;;;;;;9.70;3.10;;;;;;;12.95;88.54;101028.00;5004196;28;20655;-58
2024/02/15 05:14:20;;;;;;;9.65;2.92;;;;;;;13.14;87.77;101031.31;4997053;28;20057;-58
2024/02/15 05:16:48;;;;;;;7.80;2.85;;;;;;;13.11;87.07;101023.66;5000947;28;20062;-59
2024/02/15 05:19:16;;;;;;;9.48;3.20;;;;;;;12.96;87.97;101023.25;5007606;28;20062;-59
2024/02/15 05:21:45;;;;;;;7.72;2.97;;;;;;;12.82;88.86;101025.34;5007328;28;20057;-59
2024/02/15 05:24:16;;;;;;;7.07;2.53;;;;;;;12.78;88.83;101019.63;5010288;28;20058;-60
2024/02/15 05:26:48;;;;;;;8.82;3.10;;;;;;;12.85;88.41;101017.22;4992854;28;20208;-59
2024/02/15 05:29:16;;;;;;;11.35;3.10;;;;;;;12.90;88.44;101019.81;5011186;28;20061;-58
2024/02/15 05:31:44;;;;;;;6.40;2.67;;;;;;;13.04;87.75;101020.53;5010731;28;20085;-58
2024/02/15 05:34:11;;;;;;;12.15;3.00;;;;;;;13.06;87.59;101021.03;5009475;28;20509;-57
2024/02/15 05:36:39;;;;;;;9.27;3.05;;;;;;;13.20;86.78;101009.81;4996716;28;20062;-60
2024/02/15 05:39:07;;;;;;;11.80;3.30;;;;;;;13.04;86.63;101019.75;4992037;28;20058;-60
2024/02/15 05:41:35;;;;;;;9.35;3.28;;;;;;;13.10;87.42;101010.97;5000123;28;20061;-60
2024/02/15 05:44:06;;;;;;;10.60;3.08;;;;;;;13.08;87.25;101015.19;5023903;28;20527;-61
2024/02/15 05:46:37;;;;;;;10.95;3.17;;;;;;;13.12;86.92;101014.22;4998012;28;20054;-60
2024/02/15 05:49:05;;;;;;;10.85;3.00;;;;;;;13.39;86.15;101004.78;4991712;28;20069;-58
2024/02/15 05:51:33;;;;;;;6.10;2.83;;;;;;;13.25;85.82;101007.72;5001539;28;20063;-58
2024/02/15 05:54:02;;;;;;;9.48;3.10;;;;;;;13.24;85.92;101003.34;5009322;28;20049;-57
2024/02/15 05:56:29;;;;;;;9.55;3.00;;;;;;;13.32;85.63;101002.53;5010103;28;20421;-59
2024/02/15 05:58:57;;;;;;;10.77;2.90;;;;;;;13.27;85.27;101007.41;5010454;28;20058;-60
2024/02/15 06:01:24;;;;;;;9.95;3.15;;;;;;;12.98;86.81;101019.06;5008436;28;20049;-58
2024/02/15 06:03:54;;;;;;;9.32;3.83;;;;;;;12.97;87.58;101022.94;5009594;28;20054;-60
2024/02/15 06:06:23;;;;;;;9.45;2.95;;;;;;;12.98;87.40;101013.53;5009780;28;20053;-58
2024/02/15 06:08:50;;;;;;;8.13;3.03;;;;;;;13.02;86.99;101013.72;5019860;28;20057;-61
2024/02/15 06:11:21;;;;;;;12.10;3.55;;;;;;;12.72;88.12;101009.06;5020544;28;20053;-60
2024/02/15 06:13:48;;;;;;;8.40;3.30;;;;;;;12.86;88.05;101006.97;5010088;28;20050;-59
2024/02/15 06:16:15;;;;;;;11.32;4.00;;;;;;;13.01;87.11;100999.03;4990624;28;20061;-59
2024/02/15 06:18:43;;;;;;;9.68;3.42;;;;;;;13.10;86.82;100993.56;5009326;28;20049;-61
2024/02/15 06:21:10;;;;;;;12.80;3.80;;;;;;;13.04;86.67;100979.06;5009124;28;20054;-59
2024/02/15 06:23:37;;;;;;;8.48;3.65;;;;;;;12.89;87.21;100998.84;5009623;28;20774;-62
2024/02/15 06:26:05;;;;;;;10.60;3.70;;;;;;;12.92;87.17;100994.66;5010990;28;20413;-59
2024/02/15 06:39:42;;;;;;;11.70;4.00;;;;;;;13.08;86.86;100991.13;5021906;28;20626;-59
2024/02/15 06:42:14;;;;;;;11.18;3.38;;;;;;;12.94;87.04;100995.13;4993993;28;20054;-60
2024/02/15 06:44:43;;;;;;;9.23;3.45;;;;;;;13.04;87.63;100984.59;4989258;28;20058;-61
2024/02/15 06:47:10;;;;;;;13.45;3.70;;;;;;;12.78;87.30;100993.97;4989206;28;20076;-58
2024/02/15 06:49:41;;;;;;;7.65;3.55;;;;;;;12.88;88.18;100993.66;5005505;28;20049;-61
2024/02/15 06:52:11;;;;;;;13.70;4.40;;;;;;;12.95;87.53;100994.00;5005258;28;20549;-60
2024/02/15 06:54:38;;;;;;;10.80;3.67;;;;;;;12.91;87.15;100993.00;5007035;28;20485;-60
2024/02/15 06:57:06;;;;;;;12.50;4.15;;;;;;;12.95;87.56;100978.22;5008244;28;20049;-59
2024/02/15 06:59:34;;;;;;;10.57;5.13;;;;;;;12.69;88.32;100971.81;4991001;28;20511;-60
2024/02/15 07:02:04;;;;;;;12.65;4.30;;;;;;;12.61;89.96;100972.59;5007647;28;20057;-59
2024/02/15 07:04:33;;;;;;;10.38;3.50;;;;;;;12.72;88.89;100959.31;5007810;28;20054;-59
2024/02/15 07:07:02;;;;;;;13.45;3.80;;;;;;;12.63;89.22;100947.41;4990751;28;20057;-58
2024/02/15 07:09:29;;;;;;;8.75;3.85;;;;;;;12.58;89.21;100950.31;5008153;28;20061;-62
2024/02/15 07:11:57;;;;;;;12.05;3.83;;;;;;;12.57;90.40;100951.47;5007555;28;20401;-59
2024/02/15 07:14:27;;;;;;;12.13;4.57;;;;;;;12.52;90.24;100957.16;5008943;28;20061;-58
2024/02/15 07:16:58;;;;;;;12.65;4.45;;;;;;;12.68;89.80;100952.78;5008175;28;20062;-59
2024/02/15 07:19:27;;;;;;;11.27;4.13;;;;;;;12.67;89.59;100963.03;5008530;28;20133;-60
2024/02/15 07:21:56;;;;;;;8.88;3.92;;;;;;;12.75;88.97;100965.00;5007402;28;20671;-59
2024/02/15 07:24:26;;;;;;;14.35;4.28;;;;;;;12.86;88.34;100955.28;5019567;28;20057;-57
2024/02/15 07:26:57;;;;;;;14.07;4.47;;;;;;;12.84;88.87;100953.97;5018578;28;20046;-58
2024/02/15 07:29:25;;;;;;;10.60;4.43;;;;;;;12.74;88.53;100966.16;4993648;28;20409;-62
2024/02/15 07:31:53;;;;;;;12.45;4.60;;;;;;;12.65;88.72;100972.78;5018058;28;20060;-60
2024/02/15 07:34:21;;;;;;;11.55;4.32;;;;;;;12.68;89.38;100972.94;4990559;28;20065;-61
2024/02/15 07:36:51;;;;;;;11.20;4.10;;;;;;;12.77;89.04;100964.69;5006124;28;20248;-60
2024/02/15 07:39:24;;;;;;;9.80;4.45;;;;;;;12.64;88.60;100965.63;5008346;28;20093;-61
2024/02/15 07:41:55;;;;;;;13.20;4.00;;;;;;;12.69;89.48;100971.81;5008348;28;20057;-61
2024/02/15 07:44:22;;;;;;;12.43;4.38;;;;;;;12.79;88.79;100963.22;4999506;28;20046;-60
2024/02/15 07:46:50;;;;;;;11.00;4.18;;;;;;;12.78;88.16;100964.34;4987680;28;20054;-60
2024/02/15 07:49:17;;;;;;;9.98;3.85;;;;;;;12.82;88.16;100951.53;4988303;28;20061;-61
2024/02/15 07:51:51;;;;;;;9.55;3.83;;;;;;;12.85;87.57;100950.88;4987826;28;20062;-61
2024/02/15 07:54:20;;;;;;;10.13;3.67;;;;;;;12.70;88.03;100940.28;4970637;28;20050;-60
2024/02/15 07:56:48;;;;;;;10.53;3.80;;;;;;;12.90;87.79;100941.63;5014258;28;20164;-59
2024/02/15 07:59:19;;;;;;;12.95;4.53;;;;;;;12.64;88.06;100955.38;4992935;28;20660;-61
2024/02/15 08:01:47;;;;;;;10.07;3.67;;;;;;;12.52;89.13;100951.63;4998300;28;20058;-62
2024/02/15 08:04:15;;;;;;;10.75;3.60;;;;;;;12.45;89.13;100950.13;5016366;28;20781;-60
2024/02/15 08:06:44;;;;;;;8.55;3.63;;;;;;;12.48;89.46;100941.19;4981021;28;20057;-62
2024/02/15 08:09:13;;;;;;;12.25;3.97;;;;;;;12.56;89.03;100936.00;5003626;28;20068;-61
2024/02/15 08:11:41;;;;;;;8.57;3.90;;;;;;;12.59;89.30;100935.38;5015655;28;20553;-61
2024/02/15 08:14:10;;;;;;;9.40;3.72;;;;;;;12.71;88.34;100930.03;4988990;28;20059;-61
2024/02/15 08:16:41;;;;;;;10.52;3.60;;;;;;;12.63;87.96;100928.88;5008761;28;20069;-60
2024/02/15 08:19:08;;;;;;;14.32;4.25;;;;;;;12.71;88.24;100917.03;5014082;28;20048;-61
2024/02/15 08:21:37;;;;;;;11.43;3.88;;;;;;;12.65;87.94;100907.28;5008570;28;20046;-61
2024/02/15 08:24:05;;;;;;;13.20;4.05;;;;;;;12.48;88.83;100906.41;4987939;28;20046;-61
2024/02/15 08:26:36;;;;;;;10.52;4.00;;;;;;;12.59;88.61;100900.25;5006694;28;20069;-61
2024/02/15 08:29:04;;;;;;;9.30;3.70;;;;;;;12.79;87.83;100893.31;5008884;28;20076;-60
2024/02/15 08:31:31;;;;;;;15.02;4.38;;;;;;;12.82;86.98;100892.66;5016562;28;20056;-61
2024/02/15 08:34:00;;;;;;;9.10;3.25;;;;;;;12.68;87.28;100894.75;5021641;28;20052;-63
2024/02/15 08:36:30;;;;;;;10.15;3.50;;;;;;;12.86;86.22;100891.69;5005779;28;20058;-61
2024/02/15 08:38:58;;;;;;;25.58;5.25;;;;;;;12.70;86.18;100898.00;5001553;28;20068;-61
2024/02/15 08:41:26;;;;;;;31.13;6.47;;;;;;;12.72;87.08;100895.72;4995882;28;20061;-60
2024/02/15 08:43:56;;;;;;;42.95;6.50;;;;;;;12.86;86.75;100888.94;5003426;28;20049;-61
2024/02/15 08:46:25;;;;;;;20.48;4.72;;;;;;;12.88;86.45;100883.06;5001316;28;20053;-61
2024/02/15 08:48:53;;;;;;;31.13;5.53;;;;;;;12.95;86.42;100887.00;5014834;28;20054;-60
2024/02/15 08:51:21;;;;;;;65.57;8.93;;;;;;;13.08;85.35;100863.06;4989701;28;20565;-61
2024/02/15 08:53:51;;;;;;;25.92;5.65;;;;;;;13.18;83.93;100852.50;5003423;28;20049;-62
2024/02/15 08:56:19;;;;;;;15.82;4.28;;;;;;;13.04;83.97;100853.84;4985171;28;20371;-60
2024/02/15 08:58:47;;;;;;;19.73;4.45;;;;;;;13.08;83.71;100855.59;4996039;28;20050;-60
2024/02/15 09:01:15;;;;;;;43.83;5.43;;;;;;;12.96;84.20;100844.34;5005714;28;20064;-62
2024/02/15 09:03:45;;;;;;;14.43;4.65;;;;;;;13.02;84.26;100845.84;5022599;28;20061;-61
2024/02/15 09:06:13;;;;;;;41.08;6.72;;;;;;;13.14;83.34;100850.72;5009461;28;20563;-61
2024/02/15 09:08:40;;;;;;;43.25;7.47;;;;;;;13.24;82.39;100850.38;5017876;28;20726;-61
2024/02/15 09:11:12;;;;;;;76.43;8.60;;;;;;;13.31;83.13;100847.94;5016090;28;20892;-62
2024/02/15 09:13:39;;;;;;;20.35;5.40;;;;;;;13.34;82.49;100845.31;5010053;28;20049;-61
2024/02/15 09:16:06;;;;;;;16.42;5.07;;;;;;;13.21;83.04;100845.50;5015389;28;20454;-62
2024/02/15 09:18:34;;;;;;;12.82;5.10;;;;;;;13.45;83.26;100846.59;5001989;28;20049;-60
2024/02/15 09:21:01;;;;;;;17.23;5.25;;;;;;;13.48;83.04;100843.16;5003630;28;20509;-61
2024/02/15 09:23:31;;;;;;;12.30;4.20;;;;;;;13.37;82.08;100844.66;5010696;28;20050;-61
2024/02/15 09:25:59;;;;;;;9.73;4.10;;;;;;;13.21;82.64;100832.50;5018219;28;20128;-62
2024/02/15 09:28:26;;;;;;;11.07;3.83;;;;;;;13.25;82.38;100833.44;5007289;28;20050;-61
2024/02/15 09:30:58;;;;;;;14.30;3.83;;;;;;;13.39;82.24;100824.94;5004223;28;20054;-61
2024/02/15 09:33:26;;;;;;;8.65;4.03;;;;;;;13.63;81.09;100832.72;4991126;28;20066;-64
2024/02/15 09:35:55;;;;;;;12.48;4.45;;;;;;;13.90;79.84;100837.81;5000794;28;20070;-61
2024/02/15 09:38:22;;;;;;;10.57;3.95;;;;;;;13.84;79.30;100819.75;4992607;28;20068;-61
2024/02/15 09:40:49;;;;;;;12.63;4.25;;;;;;;13.89;79.03;100814.03;5022242;28;20344;-61
2024/02/15 09:43:17;;;;;;;13.68;3.80;;;;;;;14.07;78.05;100812.81;5001571;28;20065;-63
2024/02/15 09:45:44;;;;;;;11.27;4.20;;;;;;;14.07;77.54;100810.84;4981718;28;20154;-62
2024/02/15 09:48:14;;;;;;;16.35;3.80;;;;;;;14.22;76.78;100815.81;5009176;28;20096;-62
2024/02/15 09:50:43;;;;;;;10.30;3.55;;;;;;;14.25;75.69;100812.38;5012935;28;20065;-60
2024/02/15 09:53:10;;;;;;;11.40;3.97;;;;;;;14.14;75.45;100813.09;5014559;28;20061;-62
2024/02/15 09:55:41;;;;;;;10.63;3.95;;;;;;;14.15;76.58;100809.19;5008318;28;20050;-62
2024/02/15 09:58:09;;;;;;;9.95;3.65;;;;;;;14.23;76.07;100813.84;5001853;28;20052;-62
2024/02/15 10:00:37;;;;;;;9.35;4.00;;;;;;;14.64;75.45;100813.94;5014333;28;20049;-60
2024/02/15 10:03:06;;;;;;;11.52;3.72;;;;;;;14.66;73.92;100820.75;4998601;28;20038;-61
2024/02/15 10:05:34;;;;;;;9.13;4.10;;;;;;;14.52;74.04;100816.63;4989383;28;20047;-63
2024/02/15 10:08:02;;;;;;;14.48;4.70;;;;;;;14.60;73.99;100813.78;4988290;28;20079;-61
2024/02/15 10:10:30;;;;;;;9.10;4.22;;;;;;;14.79;73.39;100804.97;4982656;28;20390;-62
2024/02/15 10:13:00;;;;;;;16.70;4.85;;;;;;;14.83;72.32;100811.47;4996432;28;20050;-60
2024/02/15 10:15:31;;;;;;;11.27;4.90;;;;;;;15.00;72.67;100796.63;4997972;28;20056;-60
2024/02/15 10:18:02;;;;;;;8.43;4.75;;;;;;;15.08;71.67;100796.53;5000305;28;20057;-59
2024/02/15 10:20:30;;;;;;;12.07;4.67;;;;;;;14.99;71.69;100787.53;4985809;28;20058;-62
2024/02/15 10:23:00;;;;;;;13.50;4.75;;;;;;;15.22;71.20;100777.63;4993828;28;20054;-61
2024/02/15 10:25:27;;;;;;;11.07;4.20;;;;;;;15.19;70.98;100772.78;4977204;28;20082;-62
2024/02/15 10:28:08;;;;;;;20.83;4.57;;;;;;;15.02;71.00;100774.91;5000221;28;20484;-62
2024/02/15 10:30:37;;;;;;;12.85;4.50;;;;;;;15.24;71.06;100767.00;5000290;28;20069;-61
2024/02/15 10:33:07;;;;;;;13.27;3.83;;;;;;;15.34;69.65;100758.22;5001692;28;20054;-60
2024/02/15 10:35:36;;;;;;;10.32;3.95;;;;;;;15.25;70.12;100763.09;5006318;28;20058;-61
2024/02/15 10:38:12;;;;;;;11.43;4.03;;;;;;;15.35;70.10;100751.53;5003298;28;20054;-60
2024/02/15 10:40:45;;;;;;;18.88;4.07;;;;;;;15.49;69.57;100754.84;4999505;28;20046;-61
2024/02/15 10:43:13;;;;;;;9.57;4.07;;;;;;;15.60;69.22;100753.22;5002757;28;20064;-62
2024/02/15 10:45:40;;;;;;;10.32;3.53;;;;;;;15.63;68.52;100741.44;5012200;28;20046;-61
2024/02/15 10:48:09;;;;;;;11.05;3.40;;;;;;;15.61;68.86;100746.50;5008453;28;20129;-62
2024/02/15 10:50:39;;;;;;;16.75;3.97;;;;;;;15.61;69.26;100743.75;5003071;28;20421;-60
2024/02/15 10:53:23;;;;;;;11.23;3.78;;;;;;;15.83;67.63;100742.44;5001750;28;20053;-62
2024/02/15 10:55:59;;;;;;;9.07;3.88;;;;;;;15.88;67.52;100727.53;5010276;28;20046;-62
2024/02/15 10:58:36;;;;;;;9.40;3.10;;;;;;;16.02;67.19;100719.66;5010473;28;20073;-59
2024/02/15 11:01:08;;;;;;;9.27;3.63;;;;;;;15.72;67.15;100716.31;4994681;28;20057;-60
2024/02/15 11:03:36;;;;;;;12.65;3.47;;;;;;;15.63;67.80;100710.06;5000519;28;20054;-61
2024/02/15 11:06:06;;;;;;;12.02;3.65;;;;;;;15.69;67.70;100705.91;4992894;28;20072;-61
2024/02/15 11:08:35;;;;;;;10.65;3.35;;;;;;;15.77;67.68;100702.19;5009461;28;20057;-61
2024/02/15 11:11:04;;;;;;;11.43;3.38;;;;;;;16.10;66.30;100697.28;4989707;28;20387;-60
2024/02/15 11:13:33;;;;;;;9.93;3.75;;;;;;;16.02;66.11;100701.03;4998650;28;20122;-60
2024/02/15 11:16:01;;;;;;;8.45;3.30;;;;;;;16.09;65.93;100694.88;4999105;28;20050;-60
2024/02/15 11:18:48;;;;;;;8.30;3.30;;;;;;;16.32;65.12;100688.41;5005443;28;20573;-61
2024/02/15 11:21:17;;;;;;;16.10;4.72;;;;;;;16.34;65.17;100691.66;5004201;28;20052;-62
2024/02/15 11:23:45;;;;;;;11.48;3.30;;;;;;;16.39;64.60;100685.84;5008866;28;20441;-60
2024/02/15 11:26:47;;;;;;;13.07;3.67;;;;;;;16.51;64.04;100685.81;4987301;28;20046;-61
2024/02/15 11:29:51;;;;;;;14.50;4.13;;;;;;;16.37;63.09;100665.94;5011743;28;20057;-60
2024/02/15 11:32:51;;;;;;;9.05;3.70;;;;;;;16.23;64.28;100671.06;5003574;28;20046;-61
2024/02/15 11:35:22;;;;;;;11.23;4.60;;;;;;;16.47;63.57;100667.44;5011675;28;20050;-60
2024/02/15 11:37:52;;;;;;;12.52;5.13;;;;;;;16.60;62.55;100671.75;4999566;28;20080;-60